• Join FlightAware (Why Join?)
  • Login
  • US Flag 
05:32AM EDT


 

Airport Tracker/Info


-or-


 

Live Flight TrackerFlight Track Log ✈ N695AB ✈ 15-May-2013 ✈ KHTS - KHAO

Flight Track Log - Related Links

Times and Time Zones

All times are in EDT time to prevent confusion due to time zone crossing. See the N695AB flight status page for this flight to view local times or setup timezone preferences in your user account.

Time Position Orientation Groundspeed Altitude Reporting Facility
EDT Latitude Longitude Course Direction KTS MPH feet Rate Location/Type
04:27PM 38.3842 -82.6006 306° West 134 154 3,300  Level Indianapolis Center
04:28PM 38.4058 -82.6381 306° West 133 153 5,900 2,460 Climbing Indianapolis Center
04:29PM 38.4228 -82.6706 304° West 115 132 8,400 1,860 Climbing Indianapolis Center
04:30PM 38.4425 -82.7075 304° West 124 143 9,800 1,200 Climbing Indianapolis Center
04:31PM 38.4742 -82.7681 304° West 198 228 10,900 1,020 Climbing Indianapolis Center
04:32PM 38.5097 -82.8381 303° West 202 232 12,000 540 Climbing Indianapolis Center
04:33PM 38.5467 -82.9025 306° West  Level FlightAware Approximate
04:33PM 38.5453 -82.9053 304° West 224 258 12,100  Level Indianapolis Center
04:34PM 38.5825 -82.9775 303° West 241 277 12,100  Level Indianapolis Center
04:35PM 38.6206 -83.0517 303° West 249 287 12,100  Level Indianapolis Center
04:36PM 38.6644 -83.1339 304° West 250 288 12,100  Level Indianapolis Center
04:38PM 38.7039 -83.2108 303° West 254 292 12,100  Level Indianapolis Center
04:39PM 38.7431 -83.2869 303° West 253 291 12,100  Level Indianapolis Center
04:40PM 38.7808 -83.3633 302° West 253 291 12,100 -120 Level Indianapolis Center
04:41PM 38.8214 -83.4417 304° West 259 298 11,900 -360 Descending Indianapolis Center
04:42PM 38.8628 -83.5208 304° West 264 304 11,400 -540 Descending Indianapolis Center
04:43PM 38.9025 -83.5997 303° West 262 302 10,900 -540 Descending Indianapolis Center
04:44PM 38.9492 -83.6917 303° West 260 299 10,300 -540 Descending Indianapolis Center
04:45PM 38.9886 -83.7714 302° West 263 303 9,800 -480 Descending Indianapolis Center
04:46PM 39.0269 -83.8469 303° West 250 288 9,300 -480 Descending Indianapolis Center
04:47PM 39.0653 -83.9233 303° West 250 288 8,800 -540 Descending Indianapolis Center
04:48PM 39.1033 -83.9989 303° West 250 288 8,300 -540 Descending Indianapolis Center
04:49PM 39.1403 -84.0744 302° West 248 285 7,800 -540 Descending Indianapolis Center
04:50PM 39.1775 -84.1475 303° West 243 280 7,300 -540 Descending Indianapolis Center
04:51PM 39.2222 -84.2178 309° West 248 285 6,700 -660 Descending Indianapolis Center
04:52PM 39.2875 -84.2819 323° Northwest 252 290 6,000 -1,260 Descending Indianapolis Center
04:53PM 39.3153 -84.3406 302° West 220 253 4,100 -1,560 Descending Indianapolis Center
04:54PM 39.3286 -84.3919 289° West 195 224 2,800 -1,260 Descending Indianapolis Center